Time;durP1;ratioP1;P1;durP2;ratioP2;P2;SDS_P1;SDS_P2;PMS_P1;PMS_P2;Temp;Humidity;BMP_temperature;BMP_pressure;BME280_temperature;BME280_humidity;BME280_pressure;Samples;Min_cycle;Max_cycle;Signal;HPM_P1;HPM_P2
2023/07/19 00:01:34;;;;;;;2.83;1.50;;;18.20;99.90;;;;;;4994370;28;20081;-34
2023/07/19 00:04:00;;;;;;;2.50;1.70;;;18.20;99.90;;;;;;4983628;28;20089;-34
2023/07/19 00:06:25;;;;;;;3.88;2.10;;;18.10;99.90;;;;;;4988869;28;21396;-34
2023/07/19 00:08:51;;;;;;;4.50;2.53;;;18.00;99.90;;;;;;4991721;28;20052;-34
2023/07/19 00:11:17;;;;;;;3.38;2.10;;;17.90;99.90;;;;;;4989953;28;20054;-34
2023/07/19 00:13:43;;;;;;;3.92;2.30;;;17.80;99.90;;;;;;4992785;28;20077;-34
2023/07/19 00:16:08;;;;;;;4.85;2.42;;;17.80;99.90;;;;;;5003453;28;20057;-34
2023/07/19 00:18:34;;;;;;;3.85;2.30;;;17.80;99.90;;;;;;4995294;28;20077;-34
2023/07/19 00:21:00;;;;;;;4.22;2.30;;;17.80;99.90;;;;;;4991146;28;21889;-34
2023/07/19 00:23:26;;;;;;;3.35;1.98;;;17.80;99.90;;;;;;4999771;28;20042;-34
2023/07/19 00:25:51;;;;;;;3.38;2.20;;;17.80;99.90;;;;;;4989856;28;20507;-34
2023/07/19 00:28:17;;;;;;;6.00;2.95;;;17.70;99.90;;;;;;4999909;28;20050;-34
2023/07/19 00:30:43;;;;;;;3.35;2.13;;;17.60;99.90;;;;;;4996817;28;20082;-34
2023/07/19 00:33:09;;;;;;;5.45;2.33;;;17.50;99.90;;;;;;4989868;28;21199;-34
2023/07/19 00:35:41;;;;;;;5.15;2.30;;;17.50;99.90;;;;;;4994799;28;20050;-34
2023/07/19 00:38:06;;;;;;;4.13;2.08;;;17.40;99.90;;;;;;4985803;28;20528;-34
2023/07/19 00:40:33;;;;;;;4.18;2.33;;;17.50;99.90;;;;;;5010210;28;20185;-34
2023/07/19 00:42:59;;;;;;;4.28;2.42;;;17.50;99.90;;;;;;4993983;28;20046;-34
2023/07/19 00:45:26;;;;;;;8.13;3.10;;;17.40;99.90;;;;;;5000613;28;20045;-34
2023/07/19 00:47:54;;;;;;;5.15;2.75;;;17.30;99.90;;;;;;4993674;28;20042;-34
2023/07/19 00:50:21;;;;;;;7.07;2.60;;;17.30;99.90;;;;;;4999704;28;20147;-41
2023/07/19 00:52:48;;;;;;;4.68;2.78;;;17.30;99.90;;;;;;4991051;28;20072;-34
2023/07/19 00:55:13;;;;;;;4.07;2.15;;;17.40;99.90;;;;;;5009260;28;20367;-34
2023/07/19 00:57:39;;;;;;;3.97;2.50;;;17.40;99.90;;;;;;4993544;28;20050;-34
2023/07/19 01:00:06;;;;;;;4.05;2.50;;;17.30;99.90;;;;;;4988169;28;20154;-34
2023/07/19 01:02:32;;;;;;;4.03;2.45;;;17.30;99.90;;;;;;4992858;28;20074;-34
2023/07/19 01:04:58;;;;;;;3.45;2.33;;;17.30;99.90;;;;;;4998345;28;20070;-34
2023/07/19 01:07:24;;;;;;;5.85;2.97;;;17.30;99.90;;;;;;4989681;28;20156;-34
2023/07/19 01:09:50;;;;;;;6.25;3.08;;;17.40;99.90;;;;;;4992659;28;20080;-34
2023/07/19 01:12:16;;;;;;;4.88;3.10;;;17.40;99.90;;;;;;4996169;28;20046;-34
2023/07/19 01:14:42;;;;;;;7.97;2.60;;;17.40;99.90;;;;;;4998387;28;20045;-34
2023/07/19 01:17:07;;;;;;;4.15;2.38;;;17.40;99.90;;;;;;5000683;28;20050;-33
2023/07/19 01:19:33;;;;;;;3.85;2.67;;;17.40;99.90;;;;;;4991568;28;20054;-34
2023/07/19 01:21:59;;;;;;;5.63;2.72;;;17.40;99.90;;;;;;4991580;28;20051;-34
2023/07/19 01:24:25;;;;;;;4.45;2.80;;;17.40;99.90;;;;;;4997755;28;20113;-35
2023/07/19 01:26:51;;;;;;;4.10;2.40;;;17.40;99.90;;;;;;4991897;28;20118;-34
2023/07/19 01:29:17;;;;;;;5.95;3.05;;;17.40;99.90;;;;;;5002232;28;20066;-34
2023/07/19 01:31:42;;;;;;;8.70;3.13;;;17.40;99.90;;;;;;5002873;28;20103;-34
2023/07/19 01:34:08;;;;;;;5.68;3.00;;;17.40;99.90;;;;;;4990933;28;20066;-34
2023/07/19 01:36:34;;;;;;;5.47;3.05;;;17.50;99.90;;;;;;4989286;28;20054;-34
2023/07/19 01:39:00;;;;;;;5.07;3.10;;;17.50;99.90;;;;;;4981478;28;20457;-34
2023/07/19 01:41:25;;;;;;;6.93;3.55;;;17.50;99.90;;;;;;4996856;28;20054;-34
2023/07/19 01:43:51;;;;;;;5.53;3.00;;;17.40;99.90;;;;;;5000708;28;20065;-34
2023/07/19 01:46:17;;;;;;;6.90;3.63;;;17.40;99.90;;;;;;4995806;28;20050;-34
2023/07/19 01:48:42;;;;;;;7.25;3.33;;;17.30;99.90;;;;;;4992045;28;20050;-33
2023/07/19 01:51:08;;;;;;;4.40;2.65;;;17.30;99.90;;;;;;4991678;28;20046;-33
2023/07/19 01:53:34;;;;;;;7.82;3.22;;;17.30;99.90;;;;;;4998858;28;20523;-34
2023/07/19 01:56:00;;;;;;;7.50;3.97;;;17.40;99.90;;;;;;5002111;28;20575;-34
2023/07/19 01:58:25;;;;;;;5.93;2.85;;;17.40;99.90;;;;;;4995125;28;20050;-34
2023/07/19 02:00:53;;;;;;;5.38;3.63;;;17.40;99.90;;;;;;4997999;28;20057;-34
2023/07/19 02:03:19;;;;;;;6.47;3.78;;;17.40;99.90;;;;;;4995233;28;20045;-34
2023/07/19 02:05:54;;;;;;;5.07;3.40;;;17.40;99.90;;;;;;5011881;28;20042;-34
2023/07/19 02:08:20;;;;;;;4.50;3.63;;;17.40;99.90;;;;;;4986447;28;20386;-34
2023/07/19 02:10:45;;;;;;;4.25;3.35;;;17.40;99.90;;;;;;5004407;28;20416;-34
2023/07/19 02:13:11;;;;;;;5.97;3.55;;;17.40;99.90;;;;;;5001509;28;20050;-34
2023/07/19 02:15:37;;;;;;;4.57;2.90;;;17.40;99.90;;;;;;4992624;28;20065;-34
2023/07/19 02:18:03;;;;;;;5.57;3.08;;;17.50;99.90;;;;;;4995305;28;20049;-34
2023/07/19 02:20:28;;;;;;;5.97;3.72;;;17.50;99.90;;;;;;4991815;28;20054;-34
2023/07/19 02:22:54;;;;;;;6.60;3.80;;;17.50;99.90;;;;;;4998147;28;20599;-33
2023/07/19 02:25:19;;;;;;;8.60;3.58;;;17.40;99.90;;;;;;4992501;28;20687;-33
2023/07/19 02:27:45;;;;;;;7.47;3.17;;;17.40;99.90;;;;;;4995014;28;20124;-33
2023/07/19 02:30:11;;;;;;;8.15;4.18;;;17.30;99.90;;;;;;4995478;28;20073;-33
2023/07/19 02:32:38;;;;;;;5.22;3.53;;;17.30;99.90;;;;;;4988686;28;20419;-33
2023/07/19 02:35:04;;;;;;;6.05;2.80;;;17.20;99.90;;;;;;4993337;28;20052;-33
2023/07/19 02:37:30;;;;;;;5.45;3.83;;;17.10;99.90;;;;;;4999218;28;20061;-33
2023/07/19 02:39:56;;;;;;;6.90;3.38;;;17.00;99.90;;;;;;5002765;28;20042;-33
2023/07/19 02:42:21;;;;;;;6.05;3.60;;;17.00;99.90;;;;;;4980820;28;20061;-33
2023/07/19 02:44:48;;;;;;;5.03;3.10;;;16.90;99.90;;;;;;4995340;28;20134;-33
2023/07/19 02:47:13;;;;;;;5.03;3.35;;;16.90;99.90;;;;;;4996818;28;20046;-34
2023/07/19 02:49:42;;;;;;;7.65;4.10;;;16.80;99.90;;;;;;5006542;28;20490;-33
2023/07/19 02:52:08;;;;;;;7.07;3.67;;;16.90;99.90;;;;;;4994589;28;20053;-33
2023/07/19 02:54:35;;;;;;;5.70;3.70;;;16.90;99.90;;;;;;5001385;28;20064;-33
2023/07/19 02:57:01;;;;;;;4.82;3.50;;;16.90;99.90;;;;;;5000297;28;20496;-33
2023/07/19 02:59:26;;;;;;;8.10;3.75;;;17.00;99.90;;;;;;4993099;28;20128;-33
2023/07/19 03:01:52;;;;;;;6.78;3.80;;;17.10;99.90;;;;;;4991382;28;20120;-33
2023/07/19 03:04:17;;;;;;;5.93;3.33;;;17.10;99.90;;;;;;4983444;28;20570;-34
2023/07/19 03:06:43;;;;;;;5.75;3.75;;;17.10;99.90;;;;;;4992254;28;20077;-33
2023/07/19 03:09:11;;;;;;;5.25;4.00;;;17.20;99.90;;;;;;4988244;28;20046;-33
2023/07/19 03:11:36;;;;;;;5.95;4.05;;;17.20;99.90;;;;;;4993883;28;20054;-33
2023/07/19 03:14:02;;;;;;;5.68;3.90;;;17.20;99.90;;;;;;4995551;28;20460;-33
2023/07/19 03:16:28;;;;;;;6.13;3.70;;;17.10;99.90;;;;;;5004690;28;20492;-34
2023/07/19 03:18:54;;;;;;;7.72;4.20;;;17.20;99.90;;;;;;4995666;28;20129;-34
2023/07/19 03:21:20;;;;;;;6.47;3.95;;;17.10;99.90;;;;;;5004412;28;20057;-34
2023/07/19 03:23:46;;;;;;;5.38;3.47;;;17.10;99.90;;;;;;4999301;28;20495;-34
2023/07/19 03:26:11;;;;;;;8.55;3.70;;;17.00;99.90;;;;;;4987536;28;20125;-34
2023/07/19 03:28:37;;;;;;;4.45;2.75;;;16.90;99.90;;;;;;4998056;28;20077;-34
2023/07/19 03:31:03;;;;;;;6.30;4.10;;;16.90;99.90;;;;;;4998466;28;20054;-34
2023/07/19 03:33:28;;;;;;;5.93;3.92;;;16.80;99.90;;;;;;4996304;28;20177;-34
2023/07/19 03:35:54;;;;;;;6.10;3.85;;;16.70;99.90;;;;;;4991715;28;20141;-34
2023/07/19 03:38:21;;;;;;;5.85;3.90;;;16.60;99.90;;;;;;5003132;28;20086;-35
2023/07/19 03:40:46;;;;;;;8.32;3.63;;;16.60;99.90;;;;;;4999535;28;20111;-34
2023/07/19 03:43:12;;;;;;;5.47;3.72;;;16.60;99.90;;;;;;4991843;28;20062;-35
2023/07/19 03:45:39;;;;;;;7.70;4.22;;;16.60;99.90;;;;;;4994770;28;20188;-35
2023/07/19 03:48:05;;;;;;;5.65;3.55;;;16.60;99.90;;;;;;4998510;28;20062;-34
2023/07/19 03:50:31;;;;;;;7.03;3.15;;;16.60;99.90;;;;;;4997623;28;20396;-34
2023/07/19 03:52:57;;;;;;;4.30;1.98;;;16.50;99.90;;;;;;4994632;28;20042;-34
2023/07/19 03:55:23;;;;;;;4.68;2.42;;;16.50;99.90;;;;;;4995625;28;20400;-35
2023/07/19 03:57:48;;;;;;;3.38;2.50;;;16.50;99.90;;;;;;4998029;28;20057;-34
2023/07/19 04:00:14;;;;;;;4.38;2.40;;;16.60;99.90;;;;;;4984928;28;20054;-35
2023/07/19 04:02:40;;;;;;;4.90;2.13;;;16.60;99.90;;;;;;4993625;28;20472;-35
2023/07/19 04:05:06;;;;;;;4.47;2.00;;;16.50;99.90;;;;;;4981796;28;20050;-34
2023/07/19 04:07:31;;;;;;;3.72;1.50;;;16.50;99.90;;;;;;4996801;28;20133;-35
2023/07/19 04:09:57;;;;;;;3.38;1.80;;;16.50;99.90;;;;;;4995228;28;20066;-35
2023/07/19 04:12:23;;;;;;;5.25;1.05;;;16.50;99.90;;;;;;4996672;28;20050;-34
2023/07/19 04:14:48;;;;;;;1.90;1.00;;;16.40;99.90;;;;;;4994157;28;20411;-34
2023/07/19 04:17:14;;;;;;;2.20;0.85;;;16.40;99.90;;;;;;4994822;28;20039;-34
2023/07/19 04:19:40;;;;;;;2.55;0.80;;;16.30;99.90;;;;;;4994188;28;20081;-35
2023/07/19 04:22:05;;;;;;;4.57;0.80;;;16.30;99.90;;;;;;4997553;28;20054;-34
2023/07/19 04:24:31;;;;;;;3.03;0.80;;;16.30;99.90;;;;;;4988821;28;20082;-34
2023/07/19 04:26:57;;;;;;;1.95;0.80;;;16.30;99.90;;;;;;4988400;28;20044;-34
2023/07/19 04:29:22;;;;;;;2.50;0.77;;;16.30;99.90;;;;;;5007778;28;20052;-34
2023/07/19 04:31:48;;;;;;;2.33;0.82;;;16.30;99.90;;;;;;5000360;28;20103;-34
2023/07/19 04:34:14;;;;;;;3.42;1.10;;;16.40;99.90;;;;;;4991269;28;20050;-34
2023/07/19 04:36:41;;;;;;;2.60;1.52;;;16.30;99.90;;;;;;4990553;28;20128;-34
2023/07/19 04:39:06;;;;;;;2.83;1.00;;;16.30;99.90;;;;;;4994681;28;20569;-34
2023/07/19 04:41:32;;;;;;;3.60;0.88;;;16.30;99.90;;;;;;4998560;28;20054;-35
2023/07/19 04:43:58;;;;;;;2.47;0.60;;;16.30;99.90;;;;;;4994828;28;20081;-39
2023/07/19 04:46:24;;;;;;;2.42;0.70;;;16.30;99.90;;;;;;4995837;28;20050;-34
2023/07/19 04:48:50;;;;;;;1.63;0.60;;;16.30;99.90;;;;;;4979971;28;20137;-34
2023/07/19 04:51:16;;;;;;;3.08;0.82;;;16.20;99.90;;;;;;4997669;28;20518;-34
2023/07/19 04:53:41;;;;;;;3.47;0.50;;;16.20;99.90;;;;;;5001138;28;20058;-41
2023/07/19 04:56:07;;;;;;;2.05;0.47;;;16.20;99.90;;;;;;5003414;28;20053;-34
2023/07/19 04:58:32;;;;;;;2.65;0.50;;;16.20;99.90;;;;;;5004194;28;20068;-34
2023/07/19 05:01:08;;;;;;;1.38;0.40;;;16.10;99.90;;;;;;4991902;28;20123;-34
2023/07/19 05:03:35;;;;;;;2.60;0.32;;;16.20;99.90;;;;;;4989995;28;20066;-34
2023/07/19 05:06:00;;;;;;;3.25;0.52;;;16.10;99.90;;;;;;5006885;28;20053;-34
2023/07/19 05:08:26;;;;;;;3.50;0.40;;;16.20;99.90;;;;;;4990230;28;20056;-34
2023/07/19 05:10:52;;;;;;;3.80;0.55;;;16.20;99.90;;;;;;4992061;28;20058;-35
2023/07/19 05:13:18;;;;;;;1.55;0.57;;;16.20;99.90;;;;;;4996248;28;20419;-34
2023/07/19 05:15:43;;;;;;;2.58;0.60;;;16.20;99.90;;;;;;4999941;28;20085;-34
2023/07/19 05:18:09;;;;;;;2.10;0.50;;;16.30;99.90;;;;;;5004406;28;20500;-36
2023/07/19 05:20:35;;;;;;;1.77;0.50;;;16.30;99.90;;;;;;5010540;28;20545;-34
2023/07/19 05:23:00;;;;;;;1.73;0.50;;;16.30;99.90;;;;;;5003552;28;20459;-34
2023/07/19 05:25:26;;;;;;;1.25;0.50;;;16.30;99.90;;;;;;4999959;28;20458;-34
2023/07/19 05:27:52;;;;;;;2.03;0.57;;;16.40;99.90;;;;;;4998730;28;20042;-34
2023/07/19 05:30:17;;;;;;;2.28;0.65;;;16.40;99.90;;;;;;5005641;28;20062;-34
2023/07/19 05:32:43;;;;;;;2.53;0.50;;;16.50;99.90;;;;;;4985966;28;20049;-36
2023/07/19 05:35:09;;;;;;;1.88;0.60;;;16.50;99.90;;;;;;4983085;28;20077;-34
2023/07/19 05:37:35;;;;;;;1.30;0.40;;;16.50;99.90;;;;;;4997850;28;20125;-34
2023/07/19 05:40:00;;;;;;;2.65;0.60;;;16.70;99.90;;;;;;5006236;28;20149;-34
2023/07/19 05:42:26;;;;;;;1.52;0.32;;;16.70;99.90;;;;;;5000807;28;20133;-34
2023/07/19 05:44:52;;;;;;;3.05;0.65;;;16.70;99.90;;;;;;4994129;28;20050;-34
2023/07/19 05:47:17;;;;;;;2.22;0.50;;;16.80;99.90;;;;;;4991519;28;20053;-33
2023/07/19 05:49:44;;;;;;;1.77;0.80;;;16.70;99.90;;;;;;4989518;28;20096;-34
2023/07/19 05:52:10;;;;;;;3.90;0.60;;;16.90;99.90;;;;;;4994280;28;20054;-34
2023/07/19 05:54:36;;;;;;;2.63;0.80;;;16.90;99.90;;;;;;4991060;28;20061;-34
2023/07/19 05:57:02;;;;;;;2.47;0.70;;;17.00;99.90;;;;;;4997969;28;20057;-33
2023/07/19 05:59:28;;;;;;;3.20;0.60;;;17.00;99.90;;;;;;4988222;28;20058;-34
2023/07/19 06:01:54;;;;;;;1.65;0.40;;;16.90;99.90;;;;;;4993812;28;20073;-34
2023/07/19 06:04:20;;;;;;;3.85;0.63;;;16.90;99.90;;;;;;4990293;28;20054;-34
2023/07/19 06:06:46;;;;;;;1.70;0.50;;;16.90;99.90;;;;;;4994166;28;20612;-35
2023/07/19 06:09:12;;;;;;;2.30;0.50;;;17.00;99.90;;;;;;4992218;28;21193;-34
2023/07/19 06:11:37;;;;;;;1.45;0.47;;;17.00;99.90;;;;;;4996371;28;20053;-34
2023/07/19 06:14:04;;;;;;;3.00;0.60;;;17.10;99.90;;;;;;4992297;28;20049;-34
2023/07/19 06:16:29;;;;;;;2.78;0.63;;;17.20;99.90;;;;;;4987484;28;20054;-34
2023/07/19 06:18:55;;;;;;;2.78;0.60;;;17.20;99.90;;;;;;4992670;28;20081;-34
2023/07/19 06:21:23;;;;;;;2.00;0.60;;;17.30;99.90;;;;;;4993168;28;20066;-34
2023/07/19 06:23:49;;;;;;;1.27;0.68;;;17.40;99.90;;;;;;4991382;28;20050;-44
2023/07/19 06:26:14;;;;;;;3.15;0.65;;;17.40;99.90;;;;;;4995486;28;20124;-35
2023/07/19 06:28:40;;;;;;;2.58;0.60;;;17.50;99.90;;;;;;4994639;28;20767;-34
2023/07/19 06:31:06;;;;;;;3.92;0.90;;;17.50;99.90;;;;;;4996039;28;20496;-34
2023/07/19 06:33:31;;;;;;;1.27;0.55;;;17.50;99.90;;;;;;4990626;28;20499;-34
2023/07/19 06:35:57;;;;;;;2.95;0.90;;;17.60;99.90;;;;;;4992409;28;20081;-34
2023/07/19 06:38:25;;;;;;;1.55;0.60;;;17.60;99.90;;;;;;4990557;28;20045;-34
2023/07/19 06:40:51;;;;;;;4.07;0.70;;;17.60;99.90;;;;;;4983817;28;20099;-34
2023/07/19 06:43:17;;;;;;;2.88;0.70;;;17.60;99.90;;;;;;4987512;28;20085;-34
2023/07/19 06:45:45;;;;;;;2.10;0.55;;;17.60;99.90;;;;;;4983081;28;20072;-34
2023/07/19 06:48:11;;;;;;;2.35;0.60;;;17.70;99.90;;;;;;4994994;28;20582;-34
2023/07/19 06:50:37;;;;;;;1.45;0.52;;;17.80;99.90;;;;;;5000024;28;20070;-34
2023/07/19 06:53:02;;;;;;;1.75;0.70;;;17.80;99.90;;;;;;5004052;28;20076;-34
2023/07/19 06:55:28;;;;;;;1.77;0.40;;;17.80;99.90;;;;;;4991783;28;20050;-34
2023/07/19 06:57:54;;;;;;;2.47;0.47;;;17.80;99.90;;;;;;5004344;28;20106;-35
2023/07/19 07:00:20;;;;;;;1.77;0.50;;;17.90;99.90;;;;;;4996895;28;20459;-35
2023/07/19 07:02:46;;;;;;;2.95;0.50;;;17.90;99.90;;;;;;4997266;28;20100;-35
2023/07/19 07:05:12;;;;;;;1.27;0.50;;;18.00;99.90;;;;;;4980511;28;20382;-34
2023/07/19 07:07:39;;;;;;;3.83;0.65;;;18.10;99.90;;;;;;4990731;28;20057;-35
2023/07/19 07:10:08;;;;;;;2.00;0.60;;;18.00;99.90;;;;;;4991952;28;20049;-35
2023/07/19 07:12:35;;;;;;;1.10;0.50;;;18.00;99.90;;;;;;4987956;28;20054;-34
2023/07/19 07:15:02;;;;;;;3.83;0.60;;;17.90;99.90;;;;;;4991089;28;20054;-34
2023/07/19 07:17:28;;;;;;;2.17;1.08;;;17.90;99.90;;;;;;4993679;28;20497;-35
2023/07/19 07:19:54;;;;;;;1.77;0.55;;;17.90;99.90;;;;;;4993130;28;20053;-35
2023/07/19 07:22:20;;;;;;;2.83;0.65;;;17.90;99.90;;;;;;4994619;28;20151;-34
2023/07/19 07:24:46;;;;;;;1.65;0.60;;;17.90;99.90;;;;;;4980029;28;20056;-35
2023/07/19 07:27:11;;;;;;;1.73;0.63;;;17.80;99.90;;;;;;4994148;28;20364;-34
2023/07/19 07:29:41;;;;;;;2.10;0.60;;;17.80;99.90;;;;;;4988818;28;20660;-34
2023/07/19 07:32:08;;;;;;;4.07;0.68;;;17.90;99.90;;;;;;4996460;28;20050;-35
2023/07/19 07:34:33;;;;;;;1.70;0.55;;;18.00;99.90;;;;;;4978895;28;20051;-35
2023/07/19 07:36:59;;;;;;;3.65;0.52;;;17.90;99.90;;;;;;4988122;28;20521;-35
2023/07/19 07:39:25;;;;;;;1.65;0.50;;;18.00;99.90;;;;;;4992247;28;20494;-35
2023/07/19 07:41:50;;;;;;;2.42;0.40;;;18.00;99.90;;;;;;4985004;28;20147;-34
2023/07/19 07:44:16;;;;;;;2.25;0.80;;;18.00;99.90;;;;;;4984672;28;20079;-34
2023/07/19 07:46:42;;;;;;;0.77;0.45;;;18.10;99.90;;;;;;4992387;28;20061;-34
2023/07/19 07:49:07;;;;;;;4.18;0.70;;;18.10;99.90;;;;;;4988008;28;20073;-34
2023/07/19 07:51:33;;;;;;;1.45;0.57;;;18.10;99.90;;;;;;4998495;28;20056;-34
2023/07/19 07:53:59;;;;;;;1.77;0.52;;;18.20;99.90;;;;;;4981526;28;20057;-34
2023/07/19 07:56:24;;;;;;;3.22;0.82;;;18.20;99.90;;;;;;4998099;28;20052;-34
2023/07/19 07:58:50;;;;;;;2.40;0.50;;;18.30;99.90;;;;;;5004291;28;20046;-34
2023/07/19 08:01:16;;;;;;;2.63;0.88;;;18.30;99.90;;;;;;4989911;28;20157;-34
2023/07/19 08:03:42;;;;;;;2.55;0.65;;;18.40;99.90;;;;;;4991506;28;20061;-35
2023/07/19 08:06:07;;;;;;;4.22;1.33;;;18.50;99.90;;;;;;4995735;28;20053;-34
2023/07/19 08:08:33;;;;;;;2.70;0.70;;;18.60;99.90;;;;;;4995205;28;20141;-34
2023/07/19 08:11:03;;;;;;;2.33;0.70;;;18.70;99.90;;;;;;4988119;28;20129;-34
2023/07/19 08:13:29;;;;;;;3.10;0.95;;;18.90;99.90;;;;;;4988454;28;20504;-35
2023/07/19 08:15:55;;;;;;;3.10;0.85;;;18.90;99.90;;;;;;4998191;28;20101;-34
2023/07/19 08:18:20;;;;;;;2.75;0.70;;;19.00;99.90;;;;;;4993871;28;20111;-34
2023/07/19 08:20:46;;;;;;;2.78;0.70;;;19.20;99.90;;;;;;4984164;28;20108;-34
2023/07/19 08:23:11;;;;;;;1.90;0.70;;;19.20;99.90;;;;;;4996103;28;20050;-34
2023/07/19 08:25:38;;;;;;;2.28;1.10;;;19.20;99.90;;;;;;4981136;28;20046;-34
2023/07/19 08:28:03;;;;;;;1.88;0.70;;;19.30;99.90;;;;;;4990535;28;20049;-34
2023/07/19 08:30:29;;;;;;;3.17;0.50;;;19.30;99.90;;;;;;5001900;28;20407;-34
2023/07/19 08:32:55;;;;;;;3.40;0.95;;;19.40;99.90;;;;;;4991194;28;20046;-34
2023/07/19 08:35:21;;;;;;;3.97;0.70;;;19.50;99.90;;;;;;4992338;28;20618;-34
2023/07/19 08:37:47;;;;;;;2.22;0.60;;;19.40;99.90;;;;;;4987073;28;20578;-34
2023/07/19 08:40:14;;;;;;;2.90;0.70;;;19.50;99.90;;;;;;4994401;28;20942;-34
2023/07/19 08:42:40;;;;;;;2.42;0.90;;;19.60;99.90;;;;;;4993485;28;20054;-34
2023/07/19 08:45:08;;;;;;;3.05;1.00;;;19.50;99.90;;;;;;5000488;28;20061;-34
2023/07/19 08:47:35;;;;;;;2.92;0.90;;;19.50;99.90;;;;;;4987271;28;20050;-34
2023/07/19 08:50:07;;;;;;;4.15;0.82;;;19.50;99.90;;;;;;4993720;28;20573;-34
2023/07/19 08:52:33;;;;;;;3.85;0.60;;;19.60;99.90;;;;;;4989517;28;20408;-34
2023/07/19 08:55:02;;;;;;;3.10;0.65;;;19.60;99.90;;;;;;4995701;28;20518;-34
2023/07/19 08:57:28;;;;;;;3.42;0.90;;;19.70;99.90;;;;;;4997338;28;20141;-34
2023/07/19 08:59:54;;;;;;;2.20;0.60;;;19.70;99.90;;;;;;4998714;28;20054;-34
2023/07/19 09:02:20;;;;;;;3.35;0.80;;;19.70;99.90;;;;;;4989340;28;20416;-34
2023/07/19 09:05:15;;;;;;;3.13;0.80;;;19.70;99.90;;;;;;4996848;28;20050;-35
2023/07/19 09:07:42;;;;;;;1.77;0.80;;;20.00;99.90;;;;;;5001166;28;20041;-35
2023/07/19 09:10:09;;;;;;;3.22;1.50;;;20.20;99.90;;;;;;4996788;28;20579;-35
2023/07/19 09:12:39;;;;;;;4.45;1.40;;;20.50;99.90;;;;;;4999212;28;20499;-35
2023/07/19 09:15:07;;;;;;;3.35;0.82;;;20.60;99.90;;;;;;4997273;28;20060;-35
2023/07/19 09:17:50;;;;;;;6.18;1.40;;;20.70;99.90;;;;;;4998645;28;20512;-35
2023/07/19 09:20:17;;;;;;;2.10;1.02;;;20.50;99.90;;;;;;4991283;28;20141;-35
2023/07/19 09:22:43;;;;;;;3.45;1.13;;;20.50;99.90;;;;;;5004570;28;20088;-35
2023/07/19 09:25:12;;;;;;;3.78;1.23;;;20.40;99.90;;;;;;4994733;28;20112;-39
2023/07/19 09:27:41;;;;;;;2.00;0.82;;;20.20;99.90;;;;;;4998923;28;20116;-35
2023/07/19 09:30:16;;;;;;;4.70;0.90;;;20.10;99.90;;;;;;4998926;28;20124;-35
2023/07/19 09:32:42;;;;;;;2.90;0.95;;;20.10;99.90;;;;;;4997209;28;20061;-35
2023/07/19 09:35:08;;;;;;;2.90;1.00;;;20.10;99.90;;;;;;4994518;28;20073;-34
2023/07/19 09:37:34;;;;;;;3.38;0.90;;;20.20;99.90;;;;;;4993787;28;20047;-35
2023/07/19 09:40:04;;;;;;;2.47;0.90;;;20.30;99.90;;;;;;5007509;28;21583;-34
2023/07/19 09:42:36;;;;;;;2.10;0.70;;;20.50;99.90;;;;;;4989722;28;20142;-34
2023/07/19 09:45:03;;;;;;;3.50;0.80;;;20.60;99.90;;;;;;4990788;28;20102;-34
2023/07/19 09:47:33;;;;;;;3.97;0.50;;;20.70;99.90;;;;;;5001136;28;20057;-35
2023/07/19 09:49:59;;;;;;;0.93;0.40;;;20.80;99.90;;;;;;4991535;28;20121;-36
2023/07/19 09:52:25;;;;;;;3.10;0.60;;;20.90;99.90;;;;;;4997550;28;20133;-34
2023/07/19 09:54:53;;;;;;;3.05;1.40;;;21.10;99.90;;;;;;4998609;28;20057;-35
2023/07/19 09:57:20;;;;;;;4.72;0.80;;;21.10;99.90;;;;;;5004897;28;20064;-34
2023/07/19 09:59:48;;;;;;;2.20;0.50;;;21.10;99.90;;;;;;4998968;28;20058;-34
2023/07/19 10:02:14;;;;;;;3.83;1.10;;;21.00;99.90;;;;;;4990622;28;20508;-34
2023/07/19 10:04:42;;;;;;;4.80;0.85;;;20.90;99.90;;;;;;4994161;28;20128;-34
2023/07/19 10:07:09;;;;;;;1.75;0.60;;;21.00;99.90;;;;;;4993292;28;20133;-35
2023/07/19 10:09:40;;;;;;;2.53;0.65;;;20.90;99.90;;;;;;4997457;28;20427;-34
2023/07/19 10:12:24;;;;;;;3.00;0.70;;;20.80;99.90;;;;;;4985405;28;20054;-34
2023/07/19 10:15:01;;;;;;;3.53;0.60;;;20.70;99.90;;;;;;4994964;28;20396;-34
2023/07/19 10:17:29;;;;;;;2.10;0.50;;;20.60;99.90;;;;;;4998749;28;20069;-34
2023/07/19 10:20:14;;;;;;;2.15;0.55;;;20.50;99.90;;;;;;4995165;28;20057;-34
2023/07/19 10:22:57;;;;;;;2.28;0.50;;;20.50;99.90;;;;;;4993079;28;20124;-35
2023/07/19 10:25:31;;;;;;;1.88;0.60;;;20.80;99.90;;;;;;4985858;28;21539;-34
2023/07/19 10:28:00;;;;;;;2.13;0.52;;;20.80;99.90;;;;;;5001337;28;20492;-35
2023/07/19 10:30:44;;;;;;;3.50;0.55;;;20.80;99.90;;;;;;4993612;28;20061;-34
2023/07/19 10:33:19;;;;;;;1.83;0.50;;;20.90;99.90;;;;;;4985289;28;20062;-35
2023/07/19 10:35:46;;;;;;;2.53;0.55;;;21.00;99.90;;;;;;4981893;28;20054;-35
2023/07/19 10:38:19;;;;;;;1.88;0.40;;;21.00;99.90;;;;;;4996946;28;20058;-34
2023/07/19 10:40:58;;;;;;;2.20;0.50;;;21.10;99.90;;;;;;4990498;28;20097;-34
2023/07/19 10:43:28;;;;;;;1.85;0.60;;;21.10;99.90;;;;;;5000591;28;20500;-34
2023/07/19 10:45:55;;;;;;;5.32;0.80;;;21.00;99.90;;;;;;4990438;28;20054;-34
2023/07/19 10:48:26;;;;;;;1.30;0.40;;;20.90;99.90;;;;;;4992096;28;20059;-35
2023/07/19 10:50:58;;;;;;;3.15;0.88;;;20.80;99.90;;;;;;4995456;28;20042;-35
2023/07/19 10:53:25;;;;;;;1.88;0.38;;;20.80;99.90;;;;;;4996112;28;20139;-35
2023/07/19 10:55:54;;;;;;;2.55;0.60;;;20.90;99.90;;;;;;4997654;28;20046;-35
2023/07/19 10:58:21;;;;;;;1.92;0.50;;;20.80;99.90;;;;;;4994584;28;20042;-35
2023/07/19 11:00:46;;;;;;;2.42;0.70;;;20.90;99.90;;;;;;4995234;28;20180;-34
2023/07/19 11:03:13;;;;;;;2.35;0.60;;;20.80;99.90;;;;;;4998466;28;20124;-35
2023/07/19 11:05:43;;;;;;;1.20;0.38;;;20.70;99.90;;;;;;4993437;28;20392;-35
2023/07/19 11:08:09;;;;;;;2.10;0.40;;;20.70;99.90;;;;;;4998600;28;20083;-35
2023/07/19 11:10:35;;;;;;;1.90;0.57;;;20.80;99.90;;;;;;5004377;28;20455;-35
2023/07/19 11:13:02;;;;;;;1.15;0.47;;;20.80;99.90;;;;;;5001550;28;20091;-34
2023/07/19 11:15:27;;;;;;;1.98;0.60;;;21.00;99.90;;;;;;4991217;28;20074;-34
2023/07/19 11:17:56;;;;;;;5.57;0.57;;;21.20;99.90;;;;;;4999684;28;20073;-35
2023/07/19 11:20:31;;;;;;;2.88;0.45;;;21.30;99.90;;;;;;4996020;28;20173;-35
2023/07/19 11:23:07;;;;;;;1.77;0.50;;;21.40;99.90;;;;;;4986730;28;20058;-34
2023/07/19 11:25:34;;;;;;;2.28;0.90;;;21.50;99.90;;;;;;4996581;28;20042;-34
2023/07/19 11:28:00;;;;;;;2.67;0.60;;;21.60;99.90;;;;;;5000228;28;20057;-35
2023/07/19 11:30:36;;;;;;;1.23;0.52;;;21.60;99.90;;;;;;5000261;28;20042;-34
2023/07/19 11:33:06;;;;;;;1.77;0.50;;;21.60;99.90;;;;;;4982564;28;20050;-34
2023/07/19 11:35:33;;;;;;;1.38;0.50;;;21.40;99.90;;;;;;4991923;28;20051;-34
2023/07/19 11:37:58;;;;;;;2.60;0.63;;;21.60;99.90;;;;;;5006201;28;20076;-35
2023/07/19 11:40:25;;;;;;;1.45;0.50;;;21.50;99.90;;;;;;4990617;28;21041;-34
2023/07/19 11:42:57;;;;;;;2.05;0.70;;;21.60;99.90;;;;;;5003811;28;20500;-34
2023/07/19 11:45:25;;;;;;;2.15;0.70;;;21.80;99.90;;;;;;4999281;28;20156;-35
2023/07/19 11:48:00;;;;;;;3.92;0.70;;;21.80;99.90;;;;;;4990233;28;20518;-35
2023/07/19 11:50:26;;;;;;;3.08;0.90;;;21.90;99.90;;;;;;4993180;28;20070;-34
2023/07/19 11:52:57;;;;;;;1.63;0.70;;;21.70;99.90;;;;;;4997579;28;20480;-35
2023/07/19 11:55:24;;;;;;;4.63;0.70;;;21.60;99.90;;;;;;4996567;28;20562;-35
2023/07/19 11:57:51;;;;;;;1.55;0.52;;;21.30;99.90;;;;;;4987713;28;20108;-35
2023/07/19 12:00:18;;;;;;;3.03;0.50;;;21.30;99.90;;;;;;5000720;28;20479;-35
2023/07/19 12:02:46;;;;;;;2.58;0.70;;;21.30;99.90;;;;;;5000480;28;20096;-35
2023/07/19 12:05:19;;;;;;;2.25;0.70;;;21.10;99.90;;;;;;4981886;28;20050;-35
2023/07/19 12:07:46;;;;;;;2.42;0.65;;;21.00;99.90;;;;;;4996477;28;20062;-35
2023/07/19 12:10:12;;;;;;;2.50;0.70;;;20.80;99.90;;;;;;4999733;28;20169;-35
2023/07/19 12:12:39;;;;;;;3.25;0.73;;;20.80;99.90;;;;;;5001213;28;20116;-35
2023/07/19 12:15:07;;;;;;;2.40;0.65;;;20.80;99.90;;;;;;4989966;28;20065;-35
2023/07/19 12:17:34;;;;;;;2.95;0.80;;;20.70;99.90;;;;;;4985571;28;20484;-35
2023/07/19 12:20:00;;;;;;;3.95;1.10;;;20.60;99.90;;;;;;4991783;28;20099;-35
2023/07/19 12:22:30;;;;;;;4.68;1.05;;;20.60;99.90;;;;;;4991468;28;20054;-35
2023/07/19 12:24:58;;;;;;;2.67;1.20;;;20.70;99.90;;;;;;4998618;28;20049;-34
2023/07/19 12:27:24;;;;;;;3.65;1.00;;;20.70;99.90;;;;;;4990250;28;20208;-35
2023/07/19 12:29:50;;;;;;;2.38;1.25;;;20.90;99.90;;;;;;4970396;28;20054;-35
2023/07/19 12:32:16;;;;;;;2.90;0.93;;;20.90;99.90;;;;;;4985753;28;20050;-35
2023/07/19 12:34:44;;;;;;;2.58;1.30;;;21.00;99.90;;;;;;4995835;28;20054;-35
2023/07/19 12:37:10;;;;;;;3.83;0.90;;;21.10;99.90;;;;;;4992961;28;20523;-35
2023/07/19 12:39:36;;;;;;;3.47;0.93;;;21.30;99.90;;;;;;4987856;28;20137;-35
2023/07/19 12:42:03;;;;;;;2.42;1.30;;;21.30;99.90;;;;;;4965943;28;20062;-35
2023/07/19 12:44:29;;;;;;;4.55;1.40;;;21.20;99.90;;;;;;4992902;28;21172;-34
2023/07/19 12:46:54;;;;;;;2.38;1.30;;;20.90;99.90;;;;;;4992426;28;20465;-35